Time;durP1;ratioP1;P1;durP2;ratioP2;P2;SDS_P1;SDS_P2;PMS_P1;PMS_P2;Temp;Humidity;BMP_temperature;BMP_pressure;BME280_temperature;BME280_humidity;BME280_pressure;Samples;Min_cycle;Max_cycle;Signal;HPM_P1;HPM_P2
2022/10/31 00:01:59;;;;;;;10.13;6.35;;;;;;;22.89;51.77;102042.88;5090574;28;20039;-67
2022/10/31 00:04:24;;;;;;;14.73;7.65;;;;;;;22.87;51.80;102047.53;5087423;28;21077;-67
2022/10/31 00:06:50;;;;;;;11.43;6.30;;;;;;;22.90;51.43;102037.41;5085068;28;20046;-67
2022/10/31 00:09:15;;;;;;;13.85;7.13;;;;;;;22.77;51.86;102025.63;5087996;28;20028;-67
2022/10/31 00:11:41;;;;;;;12.20;6.80;;;;;;;22.86;51.67;102045.91;5090876;28;20040;-66
2022/10/31 00:14:06;;;;;;;14.23;6.88;;;;;;;22.83;51.70;102043.59;5090227;28;20036;-67
2022/10/31 00:16:32;;;;;;;15.75;6.57;;;;;;;22.87;51.85;102047.53;5089464;28;20047;-70
2022/10/31 00:19:00;;;;;;;12.77;7.15;;;;;;;22.78;51.85;102052.00;5091833;28;20051;-68
2022/10/31 00:21:26;;;;;;;15.38;7.15;;;;;;;22.84;51.65;102053.22;5086787;28;20038;-68
2022/10/31 00:23:51;;;;;;;14.05;7.18;;;;;;;22.75;51.79;102048.88;5089797;28;20032;-67
2022/10/31 00:26:17;;;;;;;11.48;6.30;;;;;;;22.77;51.81;102045.03;5085495;28;20507;-67
2022/10/31 00:28:43;;;;;;;13.63;7.07;;;;;;;22.76;51.95;102064.63;5090069;28;20046;-70
2022/10/31 00:31:10;;;;;;;11.13;7.50;;;;;;;22.75;51.91;102052.34;5087713;28;20039;-68
2022/10/31 00:33:38;;;;;;;14.88;6.47;;;;;;;22.76;51.74;102051.34;5076682;28;20039;-68
2022/10/31 00:36:05;;;;;;;10.10;6.43;;;;;;;22.79;51.48;102058.97;5088319;28;20035;-67
2022/10/31 00:38:32;;;;;;;14.63;6.82;;;;;;;22.78;51.56;102053.84;5091013;28;20047;-68
2022/10/31 00:40:57;;;;;;;12.57;6.68;;;;;;;22.73;51.85;102051.69;5089799;28;20048;-68
2022/10/31 00:43:23;;;;;;;12.57;6.78;;;;;;;22.73;51.73;102053.53;5087888;28;20036;-67
2022/10/31 00:45:49;;;;;;;12.07;6.82;;;;;;;22.74;51.64;102058.66;5085149;28;20043;-68
2022/10/31 00:48:15;;;;;;;12.40;6.68;;;;;;;22.69;51.81;102052.22;5087551;28;20548;-68
2022/10/31 00:50:41;;;;;;;12.68;6.22;;;;;;;22.69;51.64;102054.88;5088063;28;20035;-68
2022/10/31 00:53:07;;;;;;;12.27;6.45;;;;;;;22.69;51.72;102053.03;5095313;28;20031;-68
2022/10/31 00:55:33;;;;;;;11.60;6.13;;;;;;;22.63;51.77;102053.72;5090575;28;20036;-68
2022/10/31 00:57:58;;;;;;;12.20;6.20;;;;;;;22.64;51.83;102059.84;5088959;28;20765;-68
2022/10/31 01:00:24;;;;;;;14.02;6.45;;;;;;;22.68;51.88;102063.84;5088218;28;20148;-68
2022/10/31 01:02:50;;;;;;;11.05;6.30;;;;;;;22.69;51.79;102057.53;5081316;28;20028;-68
2022/10/31 01:05:15;;;;;;;13.07;6.30;;;;;;;22.67;51.88;102059.53;5088288;28;20040;-68
2022/10/31 01:07:42;;;;;;;11.40;6.90;;;;;;;22.63;51.89;102059.03;5093785;28;20043;-68
2022/10/31 01:10:09;;;;;;;10.90;6.47;;;;;;;22.61;52.04;102058.34;5092276;28;20032;-68
2022/10/31 01:12:43;;;;;;;11.80;6.60;;;;;;;22.68;51.77;102069.13;5091159;28;20027;-68
2022/10/31 01:15:10;;;;;;;10.80;5.65;;;;;;;22.67;51.51;102070.13;5084692;28;20089;-68
2022/10/31 01:17:36;;;;;;;13.15;7.15;;;;;;;22.60;51.84;102072.63;5088488;28;20043;-68
2022/10/31 01:20:03;;;;;;;14.30;6.32;;;;;;;22.60;52.09;102072.63;5086209;28;20534;-68
2022/10/31 01:22:30;;;;;;;12.00;6.18;;;;;;;22.56;52.09;102072.13;5097586;28;20548;-68
2022/10/31 01:24:59;;;;;;;11.95;6.00;;;;;;;22.62;51.81;102070.63;5091920;28;20128;-68
2022/10/31 01:27:25;;;;;;;11.70;6.22;;;;;;;22.58;51.88;102066.66;5087491;28;20027;-68
2022/10/31 01:29:50;;;;;;;10.00;5.45;;;;;;;22.56;51.43;102061.50;5079727;28;20036;-68
2022/10/31 01:32:16;;;;;;;14.02;6.47;;;;;;;22.57;51.82;102071.13;5096284;28;20165;-68
2022/10/31 01:34:41;;;;;;;12.68;6.15;;;;;;;22.48;51.78;102066.00;5089678;28;20040;-68
2022/10/31 01:37:07;;;;;;;11.18;6.18;;;;;;;22.51;51.87;102068.34;5097666;28;20052;-69
2022/10/31 01:39:32;;;;;;;10.40;5.85;;;;;;;22.54;51.88;102063.50;5085442;28;20063;-68
2022/10/31 01:41:58;;;;;;;12.40;5.82;;;;;;;22.57;52.01;102071.13;5090479;28;20050;-68
2022/10/31 01:44:24;;;;;;;10.88;6.05;;;;;;;22.57;51.58;102067.66;5079593;28;20038;-68
2022/10/31 01:46:59;;;;;;;12.13;6.13;;;;;;;22.58;51.57;102071.97;5085946;28;20035;-68
2022/10/31 01:49:33;;;;;;;9.25;5.97;;;;;;;22.54;51.98;102068.81;5090546;28;20126;-68
2022/10/31 01:52:34;;;;;;;9.80;5.47;;;;;;;22.53;51.90;102079.59;5094414;28;20028;-69
2022/10/31 01:55:05;;;;;;;9.38;5.53;;;;;;;22.46;51.73;102066.19;5111182;27;20047;-68
2022/10/31 01:57:33;;;;;;;15.45;5.97;;;;;;;22.48;52.01;102066.00;5086217;28;20065;-69
2022/10/31 02:00:04;;;;;;;10.07;5.72;;;;;;;22.46;51.91;102063.53;5089855;28;20032;-68
2022/10/31 02:02:39;;;;;;;10.48;6.68;;;;;;;22.52;51.79;102070.81;5092674;28;20428;-68
2022/10/31 02:05:09;;;;;;;11.43;5.80;;;;;;;22.46;51.80;102066.19;5090430;28;20879;-68
2022/10/31 02:07:51;;;;;;;8.88;5.18;;;;;;;22.48;51.83;102068.66;5095329;28;20031;-69
2022/10/31 02:10:21;;;;;;;9.65;6.00;;;;;;;22.48;51.88;102073.97;5091920;28;20123;-69
2022/10/31 02:12:47;;;;;;;10.20;5.63;;;;;;;22.51;51.54;102077.13;5099159;28;21031;-69
2022/10/31 02:15:14;;;;;;;10.95;5.68;;;;;;;22.40;52.02;102066.84;5097158;28;20481;-70
2022/10/31 02:17:42;;;;;;;9.05;5.35;;;;;;;22.44;51.81;102077.94;5076487;28;20065;-68
2022/10/31 02:20:17;;;;;;;9.30;5.30;;;;;;;22.44;51.63;102067.31;5090728;27;20619;-68
2022/10/31 02:22:59;;;;;;;8.60;5.30;;;;;;;22.41;51.88;102068.50;5091058;28;20525;-68
2022/10/31 02:25:51;;;;;;;11.05;5.30;;;;;;;22.45;51.81;102069.84;5091516;28;20036;-68
2022/10/31 02:28:16;;;;;;;9.27;5.18;;;;;;;22.43;51.63;102071.81;5093327;28;20028;-69
2022/10/31 02:31:17;;;;;;;10.15;5.38;;;;;;;22.45;51.85;102071.66;5085858;28;20063;-68
2022/10/31 02:33:50;;;;;;;9.57;5.03;;;;;;;22.39;51.71;102064.34;5090332;28;21401;-68
2022/10/31 02:36:39;;;;;;;8.25;5.63;;;;;;;22.29;52.16;102064.53;5094565;28;20031;-68
2022/10/31 02:39:28;;;;;;;9.98;5.68;;;;;;;22.44;51.50;102060.22;5094202;28;20400;-68
2022/10/31 02:42:15;;;;;;;9.50;5.00;;;;;;;22.39;51.71;102057.22;5089341;28;20436;-68
2022/10/31 02:45:04;;;;;;;8.85;5.35;;;;;;;22.49;51.78;102059.72;5091157;28;20375;-68
2022/10/31 02:47:33;;;;;;;11.02;5.45;;;;;;;22.34;52.01;102056.06;5089331;28;20539;-68
2022/10/31 02:50:00;;;;;;;11.43;5.40;;;;;;;22.43;51.50;102061.19;5095100;28;20495;-68
2022/10/31 02:52:26;;;;;;;9.95;5.00;;;;;;;22.36;51.78;102057.56;5089019;28;20110;-68
2022/10/31 02:54:52;;;;;;;8.55;5.00;;;;;;;22.37;51.66;102061.03;5091059;28;20131;-68
2022/10/31 02:57:33;;;;;;;8.68;4.93;;;;;;;22.38;51.96;102063.53;5091558;28;20035;-68
2022/10/31 03:00:09;;;;;;;11.35;4.97;;;;;;;22.27;51.80;102053.25;5086490;28;20040;-68
2022/10/31 03:03:07;;;;;;;10.23;5.00;;;;;;;22.29;51.90;102060.06;5094520;28;20123;-68
2022/10/31 03:05:46;;;;;;;10.60;5.30;;;;;;;22.35;51.96;102052.41;5092883;28;20084;-68
2022/10/31 03:08:35;;;;;;;10.55;5.40;;;;;;;22.31;51.69;102063.38;5091595;28;20397;-68
2022/10/31 03:11:07;;;;;;;8.73;4.85;;;;;;;22.31;51.62;102062.53;5088656;28;20024;-68
2022/10/31 03:14:05;;;;;;;8.40;4.93;;;;;;;22.38;51.78;102062.69;5090192;28;20127;-68
2022/10/31 03:16:54;;;;;;;7.63;5.13;;;;;;;22.33;51.94;102062.38;5093497;28;20036;-68
2022/10/31 03:19:20;;;;;;;9.50;5.03;;;;;;;22.34;51.61;102056.06;5106958;27;20039;-68
2022/10/31 03:21:50;;;;;;;11.73;5.88;;;;;;;22.27;51.75;102062.06;5096574;28;20471;-68
2022/10/31 03:24:17;;;;;;;9.35;5.30;;;;;;;22.30;51.57;102069.66;5096809;28;20043;-68
2022/10/31 03:26:46;;;;;;;9.57;4.95;;;;;;;22.29;51.68;102059.22;5097744;28;20073;-68
2022/10/31 03:29:16;;;;;;;10.27;5.57;;;;;;;22.29;51.73;102061.88;5092870;28;20028;-68
2022/10/31 03:31:49;;;;;;;8.65;4.85;;;;;;;22.29;51.64;102072.50;5098160;28;20072;-69
2022/10/31 03:34:18;;;;;;;9.90;5.80;;;;;;;22.35;51.51;102076.31;5090001;28;20629;-70
2022/10/31 03:36:48;;;;;;;8.90;4.63;;;;;;;22.25;51.77;102068.50;5094939;28;20036;-68
2022/10/31 03:39:14;;;;;;;;;;;;;;;22.30;51.78;102072.31;5093208;28;20519;-68
2022/10/31 03:41:46;;;;;;;9.50;5.32;;;;;;;22.30;51.90;102072.31;5089010;28;19920;-68
2022/10/31 03:44:17;;;;;;;9.05;4.70;;;;;;;22.29;51.83;102073.31;5104729;27;20482;-68
2022/10/31 03:46:46;;;;;;;9.10;4.75;;;;;;;22.27;51.96;102072.66;5094709;28;20036;-68
2022/10/31 03:49:13;;;;;;;7.88;4.60;;;;;;;22.29;51.88;102068.00;5081832;28;20040;-68
2022/10/31 03:51:52;;;;;;;10.82;4.75;;;;;;;22.27;51.70;102075.31;5089458;28;20564;-68
2022/10/31 03:54:35;;;;;;;9.50;5.15;;;;;;;22.27;51.58;102071.84;5097442;28;20485;-68
2022/10/31 03:57:13;;;;;;;7.95;4.78;;;;;;;22.26;51.44;102073.66;5092089;28;20040;-68
2022/10/31 03:59:47;;;;;;;7.57;4.50;;;;;;;22.22;51.89;102077.63;5098052;28;20040;-68
2022/10/31 04:02:18;;;;;;;8.15;4.70;;;;;;;22.20;51.62;102076.94;5092144;28;20130;-68
2022/10/31 04:04:46;;;;;;;10.90;5.75;;;;;;;22.24;51.75;102072.97;5088502;28;20054;-68
2022/10/31 04:07:13;;;;;;;8.55;4.30;;;;;;;22.24;51.53;102085.41;5099532;28;20036;-68
2022/10/31 04:09:44;;;;;;;7.32;4.15;;;;;;;22.28;51.67;102084.09;5091016;28;20443;-68
2022/10/31 04:12:14;;;;;;;9.02;4.95;;;;;;;22.22;51.56;102088.22;5094820;28;20036;-68
2022/10/31 04:15:20;;;;;;;10.80;5.30;;;;;;;22.24;51.65;102083.59;5080900;28;20076;-69
2022/10/31 04:17:49;;;;;;;9.00;4.72;;;;;;;22.20;51.65;102084.91;5097256;28;20490;-67
2022/10/31 04:20:17;;;;;;;10.68;4.82;;;;;;;22.18;51.71;102084.25;5092386;28;20023;-68
2022/10/31 04:22:43;;;;;;;7.88;4.32;;;;;;;22.22;51.87;102084.75;5090998;28;20046;-68
2022/10/31 04:25:09;;;;;;;8.80;5.05;;;;;;;22.24;51.76;102080.09;5095931;28;20035;-68
2022/10/31 04:27:36;;;;;;;7.55;4.15;;;;;;;22.16;51.87;102083.59;5089790;28;20086;-68
2022/10/31 04:30:02;;;;;;;8.55;4.45;;;;;;;22.16;51.53;102086.25;5104235;27;20040;-68
2022/10/31 04:32:32;;;;;;;8.95;4.50;;;;;;;22.15;51.54;102081.94;5097448;28;20044;-68
2022/10/31 04:34:57;;;;;;;8.35;4.50;;;;;;;22.19;51.39;102082.44;5098953;28;20861;-68
2022/10/31 04:37:24;;;;;;;7.85;4.72;;;;;;;22.18;51.56;102080.78;5087153;28;20040;-68
2022/10/31 04:39:49;;;;;;;9.82;5.07;;;;;;;22.16;51.50;102080.94;5095584;28;20036;-69
2022/10/31 04:42:35;;;;;;;9.00;5.10;;;;;;;22.16;51.42;102083.59;5087760;28;20051;-68
2022/10/31 04:45:03;;;;;;;9.70;5.00;;;;;;;22.17;51.79;102082.59;5088134;28;20050;-68
2022/10/31 04:47:33;;;;;;;6.63;4.25;;;;;;;22.16;51.49;102090.72;5090530;28;20370;-68
2022/10/31 04:49:59;;;;;;;8.15;4.78;;;;;;;22.13;51.54;102088.41;5088549;28;20032;-68
2022/10/31 04:52:25;;;;;;;7.97;4.60;;;;;;;22.18;51.32;102091.38;5093381;28;20038;-68
2022/10/31 04:54:52;;;;;;;6.05;3.92;;;;;;;22.13;51.42;102086.59;5095917;28;20457;-68
2022/10/31 04:57:46;;;;;;;7.55;4.35;;;;;;;22.12;51.48;102092.06;5092446;28;20059;-68
2022/10/31 05:00:14;;;;;;;9.45;4.90;;;;;;;22.12;51.37;102087.56;5092557;28;20043;-67
2022/10/31 05:02:44;;;;;;;9.07;4.82;;;;;;;22.12;51.54;102082.28;5097249;28;20035;-68
2022/10/31 05:05:09;;;;;;;7.88;4.88;;;;;;;22.06;51.75;102082.91;5093308;28;20447;-67
2022/10/31 05:07:39;;;;;;;8.85;4.97;;;;;;;22.12;51.48;102087.56;5094719;28;20040;-67
2022/10/31 05:10:05;;;;;;;7.00;4.22;;;;;;;22.08;51.34;102090.69;5087132;28;20044;-68
2022/10/31 05:12:32;;;;;;;7.50;4.38;;;;;;;22.11;51.27;102090.41;5109160;27;20123;-68
2022/10/31 05:15:19;;;;;;;12.10;4.80;;;;;;;22.16;51.15;102083.59;5094552;28;20042;-68
2022/10/31 05:18:03;;;;;;;9.93;4.35;;;;;;;22.15;51.37;102081.09;5090829;28;20050;-68
2022/10/31 05:20:49;;;;;;;7.60;4.32;;;;;;;22.14;51.24;102069.66;5097068;28;20051;-68
2022/10/31 05:23:28;;;;;;;8.75;4.93;;;;;;;22.08;51.33;102077.44;5097641;28;20040;-68
2022/10/31 05:25:53;;;;;;;11.88;4.95;;;;;;;22.17;51.13;102077.28;5094153;28;20114;-68
2022/10/31 05:28:19;;;;;;;10.57;4.70;;;;;;;22.13;51.22;102078.63;5088726;28;20461;-68
2022/10/31 05:30:45;;;;;;;7.47;4.63;;;;;;;22.11;51.23;102074.47;5092724;28;20027;-68
2022/10/31 05:33:14;;;;;;;7.07;4.40;;;;;;;22.14;51.35;102082.94;5085842;28;20040;-68
2022/10/31 05:35:58;;;;;;;9.35;4.38;;;;;;;22.11;51.48;102087.75;5092912;28;20054;-68
2022/10/31 05:38:41;;;;;;;8.73;4.57;;;;;;;22.02;51.53;102087.69;5091799;27;20104;-68
2022/10/31 05:41:11;;;;;;;8.63;4.80;;;;;;;22.06;51.30;102082.91;5087872;28;20120;-68
2022/10/31 05:43:41;;;;;;;7.03;4.35;;;;;;;22.05;51.28;102086.56;5094940;28;20042;-68
2022/10/31 05:46:06;;;;;;;7.15;4.28;;;;;;;22.06;51.36;102085.56;5081303;28;20547;-67
2022/10/31 05:48:50;;;;;;;8.52;4.70;;;;;;;22.14;51.24;102090.88;5091810;28;20047;-68
2022/10/31 05:51:34;;;;;;;10.30;4.68;;;;;;;22.06;51.22;102090.03;5090476;28;20046;-67
2022/10/31 05:54:02;;;;;;;7.30;5.05;;;;;;;22.08;51.13;102082.75;5089207;28;20132;-67
2022/10/31 05:56:30;;;;;;;6.22;4.43;;;;;;;22.01;51.61;102090.50;5084000;28;20036;-66
2022/10/31 05:58:55;;;;;;;7.45;4.28;;;;;;;22.00;51.34;102088.84;5090972;28;20043;-68
2022/10/31 06:01:21;;;;;;;8.45;4.47;;;;;;;22.02;51.54;102086.84;5093739;28;20043;-67
2022/10/31 06:03:46;;;;;;;6.60;4.45;;;;;;;22.08;51.41;102080.09;5096632;28;20035;-66
2022/10/31 06:06:15;;;;;;;9.05;4.43;;;;;;;22.06;51.33;102082.91;5090052;28;20046;-67
2022/10/31 06:08:40;;;;;;;6.93;3.97;;;;;;;21.97;51.33;102074.09;5090228;28;20043;-67
2022/10/31 06:11:12;;;;;;;6.68;3.90;;;;;;;21.96;51.66;102083.03;5093516;28;20035;-68
2022/10/31 06:14:05;;;;;;;9.18;4.80;;;;;;;21.94;51.61;102077.06;5065887;28;20044;-67
2022/10/31 06:16:37;;;;;;;7.35;4.38;;;;;;;22.02;51.10;102085.03;5088670;28;20598;-67
2022/10/31 06:19:26;;;;;;;6.10;4.03;;;;;;;22.04;51.00;102082.22;5081145;28;20050;-67
2022/10/31 06:21:51;;;;;;;7.15;4.25;;;;;;;22.03;51.33;102080.56;5070165;28;20043;-67
2022/10/31 06:24:17;;;;;;;6.78;4.15;;;;;;;22.06;50.92;102079.44;5089214;28;20043;-67
2022/10/31 06:26:51;;;;;;;6.13;3.92;;;;;;;21.96;51.56;102079.56;5093336;28;20077;-68
2022/10/31 06:29:17;;;;;;;5.80;4.03;;;;;;;22.00;51.27;102078.22;5095099;28;20081;-68
2022/10/31 06:32:05;;;;;;;8.20;3.90;;;;;;;21.98;51.02;102075.75;5078813;28;20040;-67
2022/10/31 06:34:37;;;;;;;6.18;4.20;;;;;;;21.98;51.35;102088.19;5108166;27;20103;-67
2022/10/31 06:37:02;;;;;;;7.97;4.57;;;;;;;21.93;51.46;102095.81;5093483;28;20039;-67
2022/10/31 06:39:29;;;;;;;8.80;5.07;;;;;;;21.97;51.11;102094.47;5085932;28;20557;-67
2022/10/31 06:41:55;;;;;;;6.40;4.03;;;;;;;21.97;51.10;102091.84;5093924;28;20048;-67
2022/10/31 06:44:22;;;;;;;6.50;4.07;;;;;;;21.86;51.64;102085.00;5106984;27;20040;-67
2022/10/31 06:46:54;;;;;;;5.82;3.92;;;;;;;21.93;51.43;102085.19;5092112;28;20052;-67
2022/10/31 06:49:39;;;;;;;22.50;4.93;;;;;;;21.97;51.07;102090.00;5094385;28;20042;-66
2022/10/31 06:52:10;;;;;;;11.27;4.32;;;;;;;21.90;51.51;102096.09;5091411;28;20035;-67
2022/10/31 06:54:36;;;;;;;7.15;3.63;;;;;;;21.93;51.24;102096.63;5094106;28;20039;-68
2022/10/31 06:57:02;;;;;;;6.15;3.72;;;;;;;21.92;51.37;102091.50;5100137;27;20032;-68
2022/10/31 06:59:28;;;;;;;6.85;4.00;;;;;;;21.89;51.42;102091.78;5092957;27;20067;-68
2022/10/31 07:02:07;;;;;;;6.55;4.10;;;;;;;21.93;51.27;102090.50;5090120;28;20047;-68
2022/10/31 07:04:33;;;;;;;8.68;4.38;;;;;;;21.99;50.88;102089.84;5094005;28;20043;-67
2022/10/31 07:06:58;;;;;;;5.82;4.05;;;;;;;21.94;51.33;102093.00;5095078;28;20051;-67
2022/10/31 07:09:26;;;;;;;9.30;3.97;;;;;;;21.85;51.28;102091.31;5095538;28;20629;-67
2022/10/31 07:11:53;;;;;;;7.38;4.45;;;;;;;21.89;51.28;102089.16;5090026;28;20107;-67
2022/10/31 07:14:19;;;;;;;7.18;3.80;;;;;;;21.87;51.34;102080.53;5091250;28;20444;-67
2022/10/31 07:16:49;;;;;;;7.22;4.13;;;;;;;21.86;51.41;102092.13;5089115;28;20035;-68
2022/10/31 07:19:16;;;;;;;9.90;3.95;;;;;;;21.82;51.59;102086.31;5085673;28;20489;-67
2022/10/31 07:21:41;;;;;;;7.32;4.43;;;;;;;21.90;51.43;102091.66;5076676;28;20047;-66
2022/10/31 07:24:08;;;;;;;8.73;4.10;;;;;;;21.78;51.16;102081.50;5098213;28;20119;-66
2022/10/31 07:26:57;;;;;;;6.03;3.90;;;;;;;21.87;51.17;102096.44;5071609;28;20047;-67
2022/10/31 07:29:22;;;;;;;6.50;3.70;;;;;;;21.93;51.25;102107.25;5088034;28;20431;-67
2022/10/31 07:31:49;;;;;;;6.35;3.95;;;;;;;21.89;50.95;102097.94;5106649;27;20066;-67
2022/10/31 07:34:20;;;;;;;6.57;3.97;;;;;;;21.79;51.52;102091.13;5089726;28;20047;-67
2022/10/31 07:37:04;;;;;;;6.57;3.78;;;;;;;21.87;51.34;102099.09;5085908;28;20609;-66
2022/10/31 07:39:30;;;;;;;5.00;3.63;;;;;;;21.85;51.35;102104.56;5093938;28;20036;-66
2022/10/31 07:41:58;;;;;;;5.70;3.97;;;;;;;21.91;50.77;102113.72;5083219;28;20051;-68
2022/10/31 07:44:23;;;;;;;5.25;3.80;;;;;;;21.80;51.10;102104.22;5093122;28;20455;-66
2022/10/31 07:47:24;;;;;;;6.97;3.80;;;;;;;21.87;51.25;102110.53;5039070;28;20052;-66
2022/10/31 07:50:14;;;;;;;6.43;4.15;;;;;;;21.87;51.15;102113.19;5093016;28;20109;-66
2022/10/31 07:53:15;;;;;;;7.35;3.97;;;;;;;21.92;50.69;102107.41;5058145;28;20132;-66
2022/10/31 07:56:03;;;;;;;6.43;3.63;;;;;;;21.88;50.89;102111.34;5093320;28;20125;-67
2022/10/31 07:58:29;;;;;;;5.32;3.78;;;;;;;21.87;50.97;102101.75;5099843;28;20031;-66
2022/10/31 08:00:58;;;;;;;5.28;3.17;;;;;;;21.84;51.08;102100.25;5088408;28;20170;-67
2022/10/31 08:03:33;;;;;;;6.25;3.33;;;;;;;21.82;51.44;102107.53;5094033;28;20887;-68
2022/10/31 08:06:17;;;;;;;6.07;3.60;;;;;;;21.80;51.33;102112.19;5088949;28;20120;-66
2022/10/31 08:09:21;;;;;;;6.05;3.55;;;;;;;21.92;50.85;102110.06;5086311;28;20370;-66
2022/10/31 08:11:48;;;;;;;7.43;3.95;;;;;;;21.88;51.11;102114.00;5097016;28;20074;-67
2022/10/31 08:14:15;;;;;;;7.35;3.97;;;;;;;21.85;50.97;102122.28;5074786;28;20054;-66
2022/10/31 08:16:40;;;;;;;7.85;3.55;;;;;;;21.89;51.17;102118.31;5092270;28;20040;-66
2022/10/31 08:19:08;;;;;;;5.22;3.65;;;;;;;21.96;50.62;102114.88;5093809;28;20032;-66
2022/10/31 08:21:37;;;;;;;6.07;3.73;;;;;;;21.92;50.71;102113.53;5090020;28;20039;-66
2022/10/31 08:24:05;;;;;;;5.53;3.72;;;;;;;21.92;50.72;102118.03;5088360;28;20035;-67
2022/10/31 08:26:32;;;;;;;4.75;3.25;;;;;;;21.81;51.10;102110.34;5091773;28;20035;-65
2022/10/31 08:28:58;;;;;;;10.95;3.60;;;;;;;21.86;51.03;102118.66;5096575;28;20035;-66
2022/10/31 08:31:28;;;;;;;6.18;3.60;;;;;;;21.87;50.67;102117.66;5090233;28;20417;-66
2022/10/31 08:34:12;;;;;;;6.78;4.03;;;;;;;21.89;50.67;102124.44;5093212;28;20046;-65
2022/10/31 08:36:58;;;;;;;7.07;3.38;;;;;;;21.90;50.70;102115.53;5077669;28;20124;-66
2022/10/31 08:39:29;;;;;;;5.40;3.45;;;;;;;21.87;50.94;102122.97;5086710;28;20038;-67
2022/10/31 08:41:57;;;;;;;8.50;4.13;;;;;;;22.00;50.36;102118.03;5090979;28;20540;-67
2022/10/31 08:44:23;;;;;;;5.88;3.72;;;;;;;21.94;50.37;102127.47;5089201;28;20040;-68
2022/10/31 08:46:48;;;;;;;6.18;4.18;;;;;;;21.94;50.84;102118.69;5091160;28;20027;-69
2022/10/31 08:49:14;;;;;;;4.85;3.00;;;;;;;21.91;50.86;102122.50;5086722;28;20043;-69
2022/10/31 08:51:42;;;;;;;4.18;3.00;;;;;;;21.95;50.85;102123.81;5085715;28;20044;-69
2022/10/31 08:54:07;;;;;;;4.80;3.40;;;;;;;22.00;50.83;102120.69;5083599;28;20082;-69
2022/10/31 08:56:55;;;;;;;7.03;3.72;;;;;;;21.96;50.65;102128.13;5052507;28;20050;-69
2022/10/31 08:59:31;;;;;;;4.90;3.53;;;;;;;21.94;50.51;102132.78;5086245;28;20027;-69
2022/10/31 09:02:11;;;;;;;6.10;3.72;;;;;;;21.99;50.52;102133.09;5092092;28;20097;-69
2022/10/31 09:04:37;;;;;;;8.55;4.25;;;;;;;21.99;50.85;102132.28;5092845;28;20044;-69
2022/10/31 09:07:03;;;;;;;5.05;2.97;;;;;;;21.99;50.72;102138.41;5089921;28;20047;-69
2022/10/31 09:09:28;;;;;;;5.32;3.47;;;;;;;21.96;50.90;102129.97;5094324;28;20089;-68
2022/10/31 09:11:54;;;;;;;6.18;3.35;;;;;;;21.99;50.73;102132.28;5093756;28;20032;-69
2022/10/31 09:14:42;;;;;;;5.88;3.47;;;;;;;22.00;50.42;102128.63;5091094;28;20443;-69
2022/10/31 09:17:20;;;;;;;6.78;3.53;;;;;;;21.95;50.75;102125.66;5085144;28;20675;-69
2022/10/31 09:20:09;;;;;;;5.38;3.58;;;;;;;21.94;50.88;102130.13;5089968;28;20075;-69
2022/10/31 09:22:35;;;;;;;5.10;3.17;;;;;;;21.86;51.30;102138.03;5087781;28;20043;-69
2022/10/31 09:25:00;;;;;;;4.50;3.45;;;;;;;21.90;50.96;102133.22;5087492;28;20390;-69
2022/10/31 09:27:26;;;;;;;7.95;3.53;;;;;;;21.95;50.57;102131.78;5108604;28;20040;-69
2022/10/31 09:29:55;;;;;;;4.50;3.30;;;;;;;21.98;50.74;102142.06;5096784;28;20036;-69
2022/10/31 09:32:21;;;;;;;5.03;3.25;;;;;;;21.96;50.74;102138.75;5082989;28;20927;-69
2022/10/31 09:34:46;;;;;;;5.25;3.10;;;;;;;21.90;50.84;102128.78;5076620;28;20096;-69
2022/10/31 09:37:15;;;;;;;6.93;3.88;;;;;;;22.00;50.48;102125.97;5092907;28;20032;-69
2022/10/31 09:39:41;;;;;;;4.68;3.33;;;;;;;21.93;50.85;102128.47;5091775;28;20100;-69
2022/10/31 09:42:44;;;;;;;5.60;3.58;;;;;;;21.94;50.84;102124.81;5086538;28;20093;-67
2022/10/31 09:45:26;;;;;;;8.45;3.50;;;;;;;21.89;51.12;102119.16;5098520;28;20047;-68
2022/10/31 09:48:09;;;;;;;6.60;3.80;;;;;;;21.89;51.04;102115.66;5095752;28;20759;-68
2022/10/31 09:50:47;;;;;;;6.78;3.83;;;;;;;21.91;50.85;102111.06;5093288;28;20144;-68
2022/10/31 09:54:14;;;;;;;5.78;3.40;;;;;;;21.93;50.78;102109.91;5067886;28;20115;-68
2022/10/31 09:56:40;;;;;;;6.40;3.85;;;;;;;21.85;50.92;102112.50;5086634;28;20047;-68
2022/10/31 09:59:14;;;;;;;5.78;3.60;;;;;;;21.85;51.03;102117.00;5083759;28;20077;-68
2022/10/31 10:01:51;;;;;;;5.60;3.40;;;;;;;21.89;50.95;102110.38;5089198;28;20032;-68
2022/10/31 10:04:32;;;;;;;7.63;3.42;;;;;;;21.92;50.63;102105.59;5094987;28;20032;-69
2022/10/31 10:07:24;;;;;;;5.95;3.80;;;;;;;21.92;50.71;102107.41;5092787;28;20066;-68
2022/10/31 10:10:29;;;;;;;4.60;3.42;;;;;;;21.91;50.75;102100.44;5094222;28;20042;-68
2022/10/31 10:13:21;;;;;;;8.32;3.47;;;;;;;21.86;50.79;102097.44;5096610;28;20444;-68
2022/10/31 10:16:15;;;;;;;4.97;3.22;;;;;;;21.90;50.79;102091.66;5096581;28;20039;-68
2022/10/31 10:18:59;;;;;;;5.47;3.53;;;;;;;21.89;50.83;102097.09;5098691;28;20061;-68
2022/10/31 10:21:44;;;;;;;6.32;3.60;;;;;;;21.90;50.77;102101.41;5095001;28;20044;-68
2022/10/31 10:24:24;;;;;;;5.53;3.50;;;;;;;21.84;50.91;102097.59;5095714;28;20051;-68
2022/10/31 10:27:21;;;;;;;4.72;3.25;;;;;;;21.82;50.92;102104.06;5097333;28;20052;-68
2022/10/31 10:29:58;;;;;;;7.07;3.65;;;;;;;21.87;50.81;102097.28;5087638;28;20505;-68
2022/10/31 10:32:28;;;;;;;5.97;3.92;;;;;;;21.94;50.56;102108.91;5093376;28;20043;-69
2022/10/31 10:35:25;;;;;;;4.20;3.08;;;;;;;21.85;50.69;102104.56;5096976;28;20047;-69
2022/10/31 10:38:28;;;;;;;5.50;3.50;;;;;;;21.87;50.88;102097.28;5091367;28;20051;-69
2022/10/31 10:40:54;;;;;;;5.03;3.55;;;;;;;21.93;50.58;102083.38;5095394;28;20530;-69
2022/10/31 10:43:29;;;;;;;7.05;3.50;;;;;;;21.85;50.74;102083.34;5092937;28;20052;-69
2022/10/31 10:49:19;;;;;;;7.20;3.70;;;;;;;21.83;50.84;102074.72;5092096;28;20786;-68
2022/10/31 10:51:51;;;;;;;6.90;3.67;;;;;;;21.91;50.64;102082.72;5090549;28;20039;-68
2022/10/31 10:54:17;;;;;;;5.57;3.60;;;;;;;21.96;50.49;102069.78;5092988;28;20038;-69
2022/10/31 10:57:32;;;;;;;8.80;3.75;;;;;;;21.92;50.76;102067.63;5095090;28;20513;-69
2022/10/31 11:00:12;;;;;;;6.93;3.50;;;;;;;21.98;50.50;102064.31;5063607;28;20050;-69
2022/10/31 11:02:38;;;;;;;6.75;3.38;;;;;;;21.98;50.44;102074.91;5091741;28;20465;-69
2022/10/31 11:05:18;;;;;;;6.78;3.60;;;;;;;21.98;50.52;102069.63;5089699;28;20040;-68
2022/10/31 11:07:43;;;;;;;5.40;3.60;;;;;;;21.93;50.53;102064.81;5094271;28;20096;-69
2022/10/31 11:10:16;;;;;;;5.15;3.70;;;;;;;21.96;50.52;102059.19;5092381;28;20036;-69
2022/10/31 11:12:45;;;;;;;5.32;3.33;;;;;;;21.97;50.42;102060.00;5087945;28;20048;-68
2022/10/31 11:15:24;;;;;;;5.55;3.30;;;;;;;21.97;50.85;102057.34;5096039;28;20032;-69
2022/10/31 11:17:55;;;;;;;6.47;3.33;;;;;;;21.89;51.12;102049.38;5094313;28;20480;-68
2022/10/31 11:20:34;;;;;;;4.82;3.13;;;;;;;21.88;51.14;102045.06;5091323;28;20042;-69
2022/10/31 11:23:15;;;;;;;5.63;3.25;;;;;;;21.87;50.79;102035.44;5093739;28;20043;-68
2022/10/31 11:25:49;;;;;;;4.80;3.13;;;;;;;22.01;50.51;102037.47;5100154;28;20067;-68
2022/10/31 11:28:14;;;;;;;5.47;3.80;;;;;;;21.97;50.82;102034.31;5096561;28;20406;-68
2022/10/31 11:30:53;;;;;;;7.38;3.50;;;;;;;22.00;50.86;102038.44;5090113;28;20035;-68
2022/10/31 11:33:36;;;;;;;5.75;3.38;;;;;;;21.96;50.61;102023.88;5089531;28;20040;-68
2022/10/31 11:36:13;;;;;;;5.78;3.33;;;;;;;22.01;50.78;102026.84;5093769;28;20561;-68
2022/10/31 11:38:43;;;;;;;4.78;3.05;;;;;;;21.96;50.66;102019.38;5092937;28;20171;-68
2022/10/31 11:41:12;;;;;;;6.03;3.47;;;;;;;21.98;50.38;102008.63;5090043;28;20055;-70
2022/10/31 11:43:40;;;;;;;8.63;3.60;;;;;;;21.90;50.97;101998.00;5078716;28;20043;-70
2022/10/31 11:46:18;;;;;;;5.15;3.03;;;;;;;21.97;50.49;101991.88;5094954;28;20039;-71
2022/10/31 11:48:49;;;;;;;7.15;3.75;;;;;;;22.02;50.19;101994.84;5097023;28;20039;-70
2022/10/31 11:51:22;;;;;;;6.53;3.22;;;;;;;22.01;50.30;101989.72;5094413;28;20652;-70
2022/10/31 11:53:52;;;;;;;8.30;3.53;;;;;;;21.93;50.36;101984.41;5089424;28;20784;-69
2022/10/31 11:56:18;;;;;;;6.20;3.60;;;;;;;22.01;50.63;101993.19;5088851;28;20046;-69